Tiempo atmosférico en la estación meteorológica de Villadepera, Zamora (790 m.)



Fecha
DESCASC
Temp. máxima en grados centígrados (hora)
DESCASC
Temp. mínima en grados centígrados (hora)
DESCASC
Temp. media en grados centígrados
DESCASC
Racha de viento máxima en m/sg (hora)
DESCASC
Velocidad máxima media en intervalos de 10 minutos(hora)
DESCASC
Precipitaciones diarias en mm
DESCASC
Precipitaciones de 00:00 a 06:00 en mm
DESCASC
Precipitaciones de 06:00 a 12:00 en mm
DESCASC
Precipitaciones de 12:00 a 18:00 en mm
DESCASC
Precipitaciones de 18:00 a 24:00 en mm
DESCASC
11-12-2019 8.2 (13:50) 2 (03:00) 5.1 13.89 (15:00) 10.28 (15:00) -- -- -- -- --
08-12-2019 9.4 (17:10) 3.2 (00:00) 6.3 9.72 (16:40) 7.5 (16:40) -- -- -- -- --
07-12-2019 11.9 (15:40) 0.7 (00:00) 6.3 5 (15:40) 3.61 (20:00) -- -- -- -- --
06-12-2019 10.6 (16:20) 1.5 (00:00) 6.1 8.61 (00:10) 5.56 (02:50) -- -- -- -- --
05-12-2019 9.8 (15:30) 1.8 (00:00) 5.8 16.11 (12:10) 11.39 (12:10) -- -- -- -- --
04-12-2019 8.7 (13:50) -2.1 (07:10) 3.3 10.56 (13:10) 7.22 (13:10) -- -- -- -- --
03-12-2019 5.3 (15:50) -0.2 (00:00) 2.6 14.17 (01:40) 10 (01:40) -- -- -- -- --
02-12-2019 9.2 (14:30) 2.1 (00:00) 5.6 16.39 (12:30) 11.39 (12:00) -- -- -- -- --
01-12-2019 8.1 (14:00) 5.2 (00:00) 6.7 12.78 (23:59) 8.33 (03:40) -- -- -- -- --
30-11-2019 11.7 (11:40) 4.2 (00:00) 7.9 16.11 (14:50) 11.11 (15:20) -- -- -- -- --
29-11-2019 13.7 (15:30) 10.3 (00:00) 12 11.39 (23:50) 8.61 (00:10) -- -- -- -- --
28-11-2019 12.7 (14:30) 8.4 (00:00) 10.5 17.78 (13:50) 13.61 (13:50) -- -- -- -- --
27-11-2019 10.2 (16:20) 6.8 (00:00) 8.5 17.5 (16:30) 12.22 (02:50) -- -- -- -- --
26-11-2019 12.9 (14:50) 7.9 (00:00) 10.4 20.28 (17:20) 14.44 (18:40) -- -- -- -- --
25-11-2019 12.7 (13:40) 9.3 (04:40) 11 14.44 (13:40) 10.83 (12:20) -- -- -- -- --
24-11-2019 9.7 (23:50) 1.8 (00:00) 5.7 14.17 (23:59) 10.56 (23:59) -- -- -- -- --
23-11-2019 9.5 (15:00) 3.5 (00:00) 6.5 18.61 (03:10) 13.89 (03:10) -- -- -- -- --
22-11-2019 11.2 (14:40) 5.6 (00:00) 8.4 21.39 (11:30) 15.56 (11:30) -- -- -- -- --
21-11-2019 9.2 (16:30) 4.4 (00:00) 6.8 10.28 (01:40) 7.22 (01:40) -- -- -- -- --
20-11-2019 7.4 (15:50) 4.5 (01:40) 6 10.83 (15:10) 8.06 (15:30) 0.2 0 0 0 0.2
19-11-2019 8.5 (15:30) -0.4 (00:00) 4 6.94 (15:10) 5 (15:10) -- -- -- -- --
18-11-2019 11.4 (15:20) 1.5 (00:00) 6.4 6.67 (01:20) 5.28 (00:30) -- -- -- -- --
17-11-2019 9.4 (16:50) 2.7 (00:00) 6 11.94 (14:30) 9.17 (21:10) 0.2 0 0.2 0 0
16-11-2019 8.2 (14:30) -1.4 (-00:0) 3.4 12.22 (15:00) 9.17 (16:30) 0 0 0 0 0
15-11-2019 7.6 (14:10) 0.1 (00:00) 3.8 11.94 (15:40) 8.61 (01:10) 0.4 0 0 0.4 0

Gráficas

Temp. máximas Temp. mínimas Temp. medias Precipitaciones Rachas de viento máximas Velocidades máximas media en intervalos de 10 minutos

Datos horarios

Fecha y hora oficial Temperatura (ºC) Velocidad del viento (km/h) Dirección del viento Racha (km/h) Dirección de racha Precipitación (mm) Presión (hPa) Tendencia (hPa) Humedad (%)
2019-12-14 23:00:00 8.5 30 Sudoeste 48 Sudoeste -- -- -- 94
2019-12-14 22:00:00 8.6 36 Sudoeste 50 Sudoeste -- -- -- 95
2019-12-14 21:00:00 8.4 31 Sudoeste 41 Sudoeste -- -- -- 95
2019-12-14 20:00:00 8.6 28 Sudoeste 44 Sudoeste -- -- -- 93
2019-12-14 19:00:00 8.7 31 Sudoeste 42 Sudoeste -- -- -- 92
2019-12-14 18:00:00 8.9 28 Sudoeste 42 Sudoeste -- -- -- 94
2019-12-14 17:00:00 9.1 28 Sudoeste 42 Sudoeste -- -- -- 95
2019-12-14 16:00:00 9.6 30 Sudoeste 42 Sudoeste -- -- -- 90
2019-12-14 15:00:00 9.7 29 Sudoeste 36 Sudoeste -- -- -- 89
2019-12-14 14:00:00 9.5 25 Sudoeste 39 Oeste -- -- -- 92
2019-12-14 13:00:00 8.7 24 Sudoeste 39 Sudoeste -- -- -- 98
2019-12-14 12:00:00 8.5 26 Sudoeste 35 Sudoeste -- -- -- 97
2019-12-14 11:00:00 8 25 Sudoeste 39 Sudoeste -- -- -- 97
2019-12-14 10:00:00 7.7 26 Sudoeste 36 Sudoeste -- -- -- 98
2019-12-14 09:00:00 7.5 21 Sudoeste 32 Sudoeste -- -- -- 97
2019-12-14 08:00:00 7.5 22 Sudoeste 30 Sudoeste -- -- -- 97
2019-12-14 07:00:00 7.5 22 Sudoeste 30 Sudoeste -- -- -- 97
2019-12-14 06:00:00 7.7 24 Sudoeste 38 Oeste -- -- -- 95
2019-12-14 05:00:00 8 32 Oeste 40 Sudoeste -- -- -- 93
2019-12-14 04:00:00 8 34 Sudoeste 47 Oeste -- -- -- 93
2019-12-14 03:00:00 8 37 Oeste 46 Sudoeste -- -- -- 94
2019-12-14 02:00:00 8.2 35 Oeste 45 Oeste -- -- -- 92
2019-12-14 01:00:00 8.5 37 Oeste 47 Oeste -- -- -- 88
2019-12-14 00:00:00 8.5 27 Oeste 41 Sudoeste -- -- -- 86
2019-12-13 23:00:00 8.4 29 Sudoeste 61 Oeste -- -- -- 89
2019-12-13 22:00:00 9.1 44 Oeste 60 Oeste -- -- -- 86
2019-12-13 21:00:00 9.8 36 Oeste 51 Sudoeste -- -- -- 88
2019-12-13 20:00:00 10 41 Oeste 59 Oeste -- -- -- 89
2019-12-13 19:00:00 10.3 35 Oeste 49 Oeste -- -- -- 91
2019-12-13 18:00:00 10.5 33 Sudoeste 48 Sudoeste -- -- -- 89
2019-12-13 17:00:00 11.1 31 Sudoeste 44 Sudoeste -- -- -- 89
2019-12-13 16:00:00 11.2 39 Oeste 50 Oeste -- -- -- 90
2019-12-13 15:00:00 10.7 32 Oeste 44 Sudoeste -- -- -- 95
2019-12-13 14:00:00 10.4 28 Sudoeste 43 Sudoeste -- -- -- 96
2019-12-13 13:00:00 10.8 32 Sudoeste 46 Sudoeste -- -- -- 90
2019-12-13 12:00:00 10.8 28 Sudoeste 40 Sudoeste -- -- -- 89
2019-12-13 11:00:00 10.1 21 Sudoeste 45 Oeste -- -- -- 92
2019-12-13 10:00:00 9.9 34 Oeste 55 Oeste -- -- -- 90
2019-12-13 09:00:00 9.8 45 Oeste 60 Oeste -- -- -- 88
2019-12-13 08:00:00 9.9 40 Oeste 57 Oeste -- -- -- 85
2019-12-13 07:00:00 9.8 41 Oeste 57 Sudoeste -- -- -- 86
2019-12-13 06:00:00 10.1 40 Oeste 56 Oeste -- -- -- 85
2019-12-13 05:00:00 10.3 43 Oeste 57 Oeste -- -- -- 88
2019-12-13 04:00:00 10.8 40 Oeste 58 Oeste -- -- -- 88
2019-12-13 03:00:00 10.6 42 Oeste 65 Oeste -- -- -- 91
2019-12-13 02:00:00 10.6 44 Oeste 66 Oeste -- -- -- 92
2019-12-13 01:00:00 10.7 47 Oeste 60 Oeste -- -- -- 92
2019-12-13 00:00:00 10.5 45 Oeste 67 Oeste -- -- -- 94
2019-12-12 23:00:00 10.6 49 Oeste 68 Oeste -- -- -- 92
2019-12-12 22:00:00 10.1 37 Oeste 57 Oeste -- -- -- 96
2019-12-12 21:00:00 10.1 39 Oeste 61 Oeste -- -- -- 95
2019-12-12 20:00:00 10.1 44 Oeste 62 Oeste -- -- -- 95
2019-12-12 19:00:00 9.6 44 Oeste 64 Oeste -- -- -- 96
2019-12-12 18:00:00 9.1 46 Oeste 65 Sudoeste -- -- -- 97
2019-12-12 17:00:00 8.7 47 Sudoeste 61 Oeste -- -- -- 97
2019-12-12 16:00:00 8.2 45 Sudoeste 65 Sudoeste -- -- -- 97
2019-12-12 15:00:00 7.4 45 Sudoeste 58 Sudoeste -- -- -- 97
2019-12-12 14:00:00 7.2 35 Sudoeste 51 Sudoeste -- -- -- 96
2019-12-12 13:00:00 6.4 31 Sudoeste 48 Sudoeste -- -- -- 98
2019-12-12 12:00:00 6.2 33 Sudoeste 55 Sudoeste -- -- -- 97
2019-12-12 11:00:00 5.9 42 Sudoeste 57 Sudoeste -- -- -- 99
2019-12-12 10:00:00 5.4 30 Sudoeste 48 Sudoeste -- -- -- 99
2019-12-12 09:00:00 5.2 36 Sudoeste 49 Sudoeste -- -- -- 100
2019-12-12 08:00:00 5.1 35 Sudoeste 46 Sudoeste -- -- -- 100
2019-12-12 07:00:00 4.9 29 Sudoeste 39 Sudoeste -- -- -- 100
2019-12-12 06:00:00 4.8 22 Sudoeste 44 Sudoeste -- -- -- 99
2019-12-12 05:00:00 4.7 30 Sudoeste 39 Sudoeste -- -- -- 99
2019-12-12 04:00:00 4.6 24 Sudoeste 37 Sudoeste -- -- -- 98
2019-12-12 03:00:00 4.4 25 Sudoeste 34 Sudoeste -- -- -- 97
2019-12-12 02:00:00 4.4 29 Sudoeste 38 Sudoeste -- -- -- 98
2019-12-12 01:00:00 4.2 24 Sudoeste 33 Sudoeste -- -- -- 98
2019-12-12 00:00:00 3.8 21 Sudoeste 28 Sudoeste -- -- -- 95
2019-12-11 23:00:00 4.4 17 Sudoeste 27 Oeste -- -- -- 94
2019-12-11 22:00:00 4.7 25 Oeste 34 Oeste -- -- -- 92
2019-12-11 21:00:00 5.2 25 Oeste 36 Sudoeste -- -- -- 88
2019-12-11 20:00:00 5.3 25 Sudoeste 36 Oeste -- -- -- 85
2019-12-11 19:00:00 4.7 23 Oeste 39 Oeste -- -- -- 84
2019-12-11 18:00:00 6 19 Oeste 37 Oeste -- -- -- 75
2019-12-11 17:00:00 7 26 Oeste 46 Noroeste -- -- -- 69
2019-12-11 16:00:00 8.1 23 Oeste 48 Oeste -- -- -- 62
2019-12-11 15:00:00 8 37 Oeste 50 Oeste -- -- -- 62
2019-12-11 14:00:00 8.2 30 Oeste 41 Oeste -- -- -- 66
2019-12-11 13:00:00 7.7 20 Oeste 33 Oeste -- -- -- 72
2019-12-11 12:00:00 6.5 26 Oeste 36 Oeste -- -- -- 87
2019-12-11 11:00:00 4.8 25 Oeste 32 Oeste -- -- -- 100
2019-12-11 10:00:00 3.3 27 Oeste 35 Oeste -- -- -- 100
2019-12-11 09:00:00 3.3 23 Oeste 34 Oeste -- -- -- 100
2019-12-11 08:00:00 3.4 19 Sudoeste 28 Oeste -- -- -- 100
2019-12-11 07:00:00 3.1 22 Oeste 28 Oeste -- -- -- 100
2019-12-11 06:00:00 3.2 16 Sudoeste 24 Oeste -- -- -- 100
2019-12-11 05:00:00 2.9 18 Oeste 21 Oeste -- -- -- 100
2019-12-11 04:00:00 2.2 15 Sudoeste 24 Oeste -- -- -- 100
2019-12-11 03:00:00 2 17 Oeste 25 Oeste -- -- -- 100
2019-12-11 02:00:00 2.8 19 Oeste 26 Sudoeste -- -- -- 100
2019-12-11 01:00:00 2.8 15 Sudoeste 21 Oeste -- -- -- 100
2019-12-11 00:00:00 2.7 19 Oeste 25 Oeste -- -- -- 100
2019-12-10 23:00:00 2.5 10 Oeste 13 Sudoeste -- -- -- 99
2019-12-10 22:00:00 3 10 Sudoeste 18 Oeste -- -- -- 98
2019-12-10 21:00:00 3.9 10 Sudoeste 13 Sudoeste -- -- -- 97
2019-12-10 20:00:00 4.7 9 Sudoeste 14 Oeste -- -- -- 96
2019-12-10 19:00:00 5.3 14 Oeste 18 Oeste -- -- -- 95
2019-12-10 18:00:00 5.7 10 Oeste 12 Oeste -- -- -- 95
2019-12-10 17:00:00 5.8 6 Sur 8 Sur -- -- -- 96
2019-12-10 16:00:00 5.6 3 Sudoeste 7 Sudeste -- -- -- 96
2019-12-10 15:00:00 5.4 3 Sudeste 6 Sudeste -- -- -- 97
2019-12-10 14:00:00 4.8 2 Sudeste 5 Sudeste -- -- -- 100
2019-12-10 13:00:00 1.8 3 Este 9 Sudeste -- -- -- 100
2019-12-10 12:00:00 0.4 8 Este 10 Sudeste -- -- -- 100
2019-12-10 11:00:00 -0.6 8 Este 12 Sudeste -- -- -- 100
2019-12-10 10:00:00 -1.8 5 Sudeste 9 Nordeste -- -- -- 100
2019-12-10 09:00:00 -1.3 4 Nordeste 8 Nordeste -- -- -- 100
2019-12-10 08:00:00 -1.7 5 Este 9 Este -- -- -- 100
2019-12-10 07:00:00 -1.2 4 Este 11 Sudeste -- -- -- 98
2019-12-10 06:00:00 -0.2 7 Sudeste 10 Sudeste -- -- -- 95
2019-12-10 05:00:00 1.3 9 Nordeste 13 Nordeste -- -- -- 96
2019-12-10 04:00:00 2.3 11 Norte 13 Norte -- -- -- 94
2019-12-10 03:00:00 2.7 9 Norte 10 Norte -- -- -- 97
2019-12-10 02:00:00 2.3 6 Nordeste 10 Nordeste -- -- -- 96
2019-12-10 01:00:00 2.8 5 Este 10 Sudeste -- -- -- 97
2019-12-10 00:00:00 3.1 4 Sur 12 Sudeste -- -- -- 96
2019-12-09 23:00:00 3.5 4 Sudeste 9 Este -- -- -- 97
2019-12-09 22:00:00 4.3 7 Nordeste 12 Nordeste -- -- -- 97
2019-12-09 21:00:00 4.3 6 Nordeste 8 Nordeste -- -- -- 95
2019-12-09 20:00:00 5.4 2 Norte 5 Nordeste -- -- -- 94
2019-12-09 19:00:00 5.7 2 Noroeste 7 Sudoeste -- -- -- 93
2019-12-09 18:00:00 6.1 0 Calma 9 Oeste -- -- -- 92
2019-12-09 17:00:00 6.8 6 Oeste 20 Oeste -- -- -- 90
2019-12-09 16:00:00 7 18 Oeste 26 Oeste -- -- -- 88
2019-12-09 15:00:00 7.6 18 Oeste 24 Oeste -- -- -- 86
2019-12-09 14:00:00 8.4 18 Oeste 26 Oeste -- -- -- 86
2019-12-09 13:00:00 6.9 20 Oeste 27 Oeste -- -- -- 100
2019-12-09 12:00:00 5 20 Sudoeste 25 Sudoeste -- -- -- 100
2019-12-09 11:00:00 3.6 13 Sudoeste 24 Sudoeste -- -- -- 100
2019-12-09 10:00:00 3.3 17 Sudoeste 23 Sudoeste -- -- -- 100
2019-12-09 09:00:00 3.5 10 Sudoeste 15 Oeste -- -- -- 100
2019-12-09 08:00:00 4.2 8 Oeste 17 Sudoeste -- -- -- 100
2019-12-09 07:00:00 4.4 12 Sudoeste 18 Oeste -- -- -- 100
2019-12-09 06:00:00 4.7 12 Oeste 20 Oeste -- -- -- 100
2019-12-09 05:00:00 4.8 14 Sudoeste 23 Oeste -- -- -- 100
2019-12-09 04:00:00 5 13 Sudoeste 21 Sudoeste -- -- -- 100
2019-12-09 03:00:00 5.5 13 Oeste 21 Sudoeste -- -- -- 100
2019-12-09 02:00:00 6.2 12 Oeste 19 Oeste -- -- -- 100
2019-12-09 01:00:00 6.7 14 Oeste 21 Oeste -- -- -- 100
2019-12-09 00:00:00 7.1 13 Oeste 21 Oeste -- -- -- 100
2019-12-08 23:00:00 7.4 16 Oeste 21 Oeste -- -- -- 100
2019-12-08 22:00:00 7.9 15 Oeste 22 Oeste -- -- -- 100
2019-12-08 21:00:00 8.4 16 Oeste 24 Oeste -- -- -- 100
2019-12-08 20:00:00 9.2 12 Oeste 19 Oeste -- -- -- 100
2019-12-08 19:00:00 9.3 13 Oeste 26 Oeste -- -- -- 100
2019-12-08 18:00:00 9.3 18 Oeste 30 Oeste -- -- -- 100
2019-12-08 17:00:00 9.3 25 Sudoeste 35 Oeste -- -- -- 100
2019-12-08 16:00:00 9.1 22 Oeste 32 Oeste -- -- -- 100
2019-12-08 15:00:00 8.6 20 Sudoeste 26 Oeste -- -- -- 100
2019-12-08 14:00:00 8.3 18 Sudoeste 22 Oeste -- -- -- 100
2019-12-08 13:00:00 7.6 16 Sudoeste 22 Sudoeste -- -- -- 100
2019-12-08 12:00:00 7.1 16 Sudoeste 20 Oeste -- -- -- 100
2019-12-08 11:00:00 6.4 17 Sudoeste 25 Sudoeste -- -- -- 100
2019-12-08 10:00:00 5.7 17 Sudoeste 23 Oeste -- -- -- 100
2019-12-08 09:00:00 5.9 17 Sudoeste 21 Sudoeste -- -- -- 100
2019-12-08 08:00:00 5.2 13 Sudoeste 19 Sudoeste -- -- -- 100
2019-12-08 07:00:00 4.3 12 Sudoeste 15 Oeste -- -- -- 100
2019-12-08 06:00:00 4.5 8 Oeste 12 Sudoeste -- -- -- 100
2019-12-08 05:00:00 4.4 12 Sudoeste 14 Sudoeste -- -- -- 100
2019-12-08 04:00:00 3.6 10 Sudoeste 15 Sudoeste -- -- -- 99
2019-12-08 03:00:00 3.4 11 Oeste 16 Oeste -- -- -- 99
2019-12-08 02:00:00 4.1 11 Oeste 13 Oeste -- -- -- 98
2019-12-08 01:00:00 4.4 11 Sudoeste 12 Sudoeste -- -- -- 97
2019-12-08 00:00:00 5.2 5 Sudoeste 8 Sudoeste -- -- -- 95
2019-12-07 23:00:00 5.7 8 Oeste 9 Oeste -- -- -- 94
2019-12-07 22:00:00 5.5 6 Sudoeste -- -- -- -- -- 94
2019-12-07 21:00:00 6.3 11 Oeste 15 Oeste -- -- -- 91
2019-12-07 20:00:00 6.9 13 Oeste 14 Oeste -- -- -- 90
2019-12-07 19:00:00 7.2 10 Oeste 12 Oeste -- -- -- 90
2019-12-07 18:00:00 8.8 9 Sudoeste 13 Sudoeste -- -- -- 82
2019-12-07 17:00:00 11.5 9 Sudoeste 15 Sudoeste -- -- -- 74
2019-12-07 16:00:00 11.7 12 Oeste 18 Oeste -- -- -- 73
2019-12-07 15:00:00 11.3 10 Sudoeste 16 Sudoeste -- -- -- 73
2019-12-07 14:00:00 9.3 5 Sur 11 Sudeste -- -- -- 87
2019-12-07 13:00:00 7.2 3 Sudeste 9 Este -- -- -- 100
2019-12-07 12:00:00 5.4 3 Noroeste 8 Norte -- -- -- 100
2019-12-07 11:00:00 3.7 2 Norte 7 Sudeste -- -- -- 100
2019-12-07 10:00:00 2.1 3 Sudeste 7 Sudeste -- -- -- 100
2019-12-07 09:00:00 0.7 3 Sudeste 5 Este -- -- -- 99
2019-12-07 08:00:00 3 2 Noroeste 11 Noroeste -- -- -- 100
2019-12-07 07:00:00 3.7 4 Sudoeste 5 Sudoeste -- -- -- 98
2019-12-07 06:00:00 2.7 2 Noroeste 8 Sur -- -- -- 98
2019-12-07 05:00:00 3.9 5 Sudeste 8 Sudeste -- -- -- 95
2019-12-07 04:00:00 5.2 0 Calma 4 Oeste -- -- -- 95
2019-12-07 03:00:00 5.3 3 Sudoeste 6 Oeste -- -- -- 94
2019-12-07 02:00:00 4.8 4 Oeste 9 Oeste -- -- -- 96
2019-12-07 01:00:00 5.2 8 Oeste 9 Oeste -- -- -- 92
2019-12-07 00:00:00 5.3 4 Sudoeste 8 Oeste -- -- -- 91
2019-12-06 23:00:00 5.6 8 Oeste 10 Oeste -- -- -- 91
2019-12-06 22:00:00 6.2 4 Sur 8 Sur -- -- -- 89
2019-12-06 21:00:00 6.7 3 Sur 8 Sudeste -- -- -- 87
2019-12-06 20:00:00 7.3 0 Calma 4 Sur -- -- -- 84
2019-12-06 19:00:00 7.4 3 Sur 5 Sudeste -- -- -- 83
2019-12-06 18:00:00 8.2 5 Sudeste 8 Sur -- -- -- 80
2019-12-06 17:00:00 10.4 4 Sur 7 Sudeste -- -- -- 73
2019-12-06 16:00:00 10.5 5 Sudeste 10 Sudeste -- -- -- 73
2019-12-06 15:00:00 9.5 3 Este 7 Nordeste -- -- -- 75
2019-12-06 14:00:00 9.7 3 Este 10 Este -- -- -- 75
2019-12-06 13:00:00 8.8 5 Sudeste 13 Sudeste -- -- -- 78
2019-12-06 12:00:00 7.3 7 Nordeste 14 Nordeste -- -- -- 83
2019-12-06 11:00:00 4.9 12 Nordeste 15 Nordeste -- -- -- 90
2019-12-06 10:00:00 2.9 5 Este 12 Nordeste -- -- -- 95
2019-12-06 09:00:00 1.9 4 Nordeste 11 Este -- -- -- 98
2019-12-06 08:00:00 1.8 4 Este 14 Este -- -- -- 96
2019-12-06 07:00:00 2 8 Nordeste 15 Nordeste -- -- -- 95
2019-12-06 06:00:00 2.3 11 Nordeste 19 Nordeste -- -- -- 95
2019-12-06 05:00:00 2.9 12 Norte 16 Norte -- -- -- 96
2019-12-06 04:00:00 2.8 11 Nordeste 20 Nordeste -- -- -- 96
2019-12-06 03:00:00 3.9 17 Nordeste 26 Nordeste -- -- -- 93
2019-12-06 02:00:00 3.9 11 Nordeste 19 Nordeste -- -- -- 93
2019-12-06 01:00:00 4.3 9 Nordeste 31 Nordeste -- -- -- 93
2019-12-06 00:00:00 4.9 21 Nordeste 33 Nordeste -- -- -- 92
2019-12-05 23:00:00 5.1 23 Nordeste 33 Nordeste -- -- -- 92
2019-12-05 22:00:00 5.4 20 Nordeste 27 Nordeste -- -- -- 91
2019-12-05 21:00:00 5.9 19 Nordeste 30 Nordeste -- -- -- 90
2019-12-05 20:00:00 6.3 18 Nordeste 29 Nordeste -- -- -- 87
2019-12-05 19:00:00 7 21 Nordeste 34 Nordeste -- -- -- 85
2019-12-05 18:00:00 7.8 18 Nordeste 36 Nordeste -- -- -- 82
2019-12-05 17:00:00 9.1 23 Nordeste 41 Nordeste -- -- -- 78
2019-12-05 16:00:00 9.5 27 Nordeste 46 Nordeste -- -- -- 73
2019-12-05 15:00:00 9.4 32 Nordeste 44 Nordeste -- -- -- 74
2019-12-05 14:00:00 8 28 Nordeste 45 Este -- -- -- 80
2019-12-05 13:00:00 8.4 31 Nordeste 58 Nordeste -- -- -- 82
2019-12-05 12:00:00 8 36 Nordeste 53 Nordeste -- -- -- 82
2019-12-05 11:00:00 5.2 21 Nordeste 30 Nordeste -- -- -- 87
2019-12-05 10:00:00 3.8 17 Nordeste 24 Nordeste -- -- -- 85
2019-12-05 09:00:00 2.6 16 Nordeste 22 Nordeste -- -- -- 88
2019-12-05 08:00:00 2 15 Nordeste 21 Nordeste -- -- -- 93
2019-12-05 07:00:00 2.1 14 Nordeste 20 Nordeste -- -- -- 96
2019-12-05 06:00:00 1.9 13 Nordeste 24 Este -- -- -- 94
2019-12-05 05:00:00 2.2 14 Nordeste 31 Este -- -- -- 93
2019-12-05 04:00:00 1.8 13 Este 26 Este -- -- -- 93
2019-12-05 03:00:00 1.9 15 Este 32 Este -- -- -- 93
2019-12-05 02:00:00 2.9 23 Este 36 Este -- -- -- 89
2019-12-05 01:00:00 3 21 Este 31 Este -- -- -- 85
2019-12-05 00:00:00 3.8 14 Nordeste 23 Nordeste -- -- -- 83
2019-12-04 23:00:00 4.5 18 Nordeste 22 Nordeste -- -- -- 82
2019-12-04 22:00:00 5.2 14 Nordeste 23 Nordeste -- -- -- 84
2019-12-04 21:00:00 5.3 13 Nordeste 15 Nordeste -- -- -- 88
2019-12-04 20:00:00 5.2 8 Nordeste 12 Nordeste -- -- -- 90
2019-12-04 19:00:00 5.5 9 Este 14 Nordeste -- -- -- 88
2019-12-04 18:00:00 7 12 Nordeste 19 Nordeste -- -- -- 82
2019-12-04 17:00:00 7.6 12 Nordeste 27 Nordeste -- -- -- 80
2019-12-04 16:00:00 8.2 17 Nordeste 30 Nordeste -- -- -- 77
2019-12-04 15:00:00 8.1 22 Nordeste 32 Nordeste -- -- -- 76
2019-12-04 14:00:00 8.6 21 Nordeste 38 Nordeste -- -- -- 72
2019-12-04 13:00:00 8 24 Nordeste 33 Nordeste -- -- -- 70
2019-12-04 12:00:00 5.5 15 Nordeste 29 Nordeste -- -- -- 83
2019-12-04 11:00:00 3.4 14 Nordeste 24 Nordeste -- -- -- 88
2019-12-04 10:00:00 0.6 17 Nordeste 25 Nordeste -- -- -- 94
2019-12-04 09:00:00 -0.7 8 Nordeste 17 Nordeste -- -- -- 95
2019-12-04 08:00:00 -0.9 12 Nordeste 17 Nordeste -- -- -- 96
2019-12-04 07:00:00 -1.9 8 Este 15 Nordeste -- -- -- 97
2019-12-04 06:00:00 -1.4 10 Nordeste 15 Nordeste -- -- -- 97
2019-12-04 05:00:00 -1.1 12 Nordeste 18 Nordeste -- -- -- 97
2019-12-04 04:00:00 -1 14 Nordeste 22 Nordeste -- -- -- 96
2019-12-04 03:00:00 -1 14 Nordeste 20 Nordeste -- -- -- 97
2019-12-04 02:00:00 -0.7 10 Nordeste 28 Nordeste -- -- -- 96
2019-12-04 01:00:00 -0.7 15 Nordeste 22 Nordeste -- -- -- 95
2019-12-04 00:00:00 -0.2 13 Nordeste 20 Nordeste -- -- -- 94
2019-12-03 23:00:00 0.2 12 Nordeste 25 Nordeste -- -- -- 93
2019-12-03 22:00:00 0.7 18 Nordeste 25 Nordeste -- -- -- 92
2019-12-03 21:00:00 1.2 15 Nordeste 21 Nordeste -- -- -- 90
2019-12-03 20:00:00 1.7 15 Nordeste 25 Nordeste -- -- -- 89
2019-12-03 19:00:00 2.2 17 Nordeste 24 Nordeste -- -- -- 86
2019-12-03 18:00:00 2.8 13 Nordeste 25 Nordeste -- -- -- 83
2019-12-03 17:00:00 4.5 17 Nordeste 33 Nordeste -- -- -- 75
2019-12-03 16:00:00 5.3 20 Nordeste 32 Nordeste -- -- -- 71
2019-12-03 15:00:00 4.5 21 Nordeste 35 Nordeste -- -- -- 76
2019-12-03 14:00:00 4.6 22 Nordeste 36 Este -- -- -- 76
2019-12-03 13:00:00 4.3 22 Este 46 Nordeste -- -- -- 78
2019-12-03 12:00:00 4.1 34 Nordeste 49 Este -- -- -- 78
2019-12-03 11:00:00 4 26 Nordeste 42 Nordeste -- -- -- 77
2019-12-03 10:00:00 1.8 22 Nordeste 32 Nordeste -- -- -- 87
2019-12-03 09:00:00 0.1 19 Nordeste 33 Nordeste -- -- -- 92
2019-12-03 08:00:00 0.9 27 Nordeste 44 Nordeste -- -- -- 89
2019-12-03 07:00:00 1 26 Nordeste 39 Nordeste -- -- -- 89
2019-12-03 06:00:00 0.8 22 Nordeste 36 Este -- -- -- 90
2019-12-03 05:00:00 1.1 24 Nordeste 36 Nordeste -- -- -- 89
2019-12-03 04:00:00 1.3 26 Nordeste 42 Este -- -- -- 88
2019-12-03 03:00:00 1.9 31 Nordeste 51 Nordeste -- -- -- 84
2019-12-03 02:00:00 2 31 Nordeste 51 Nordeste -- -- -- 84
2019-12-03 01:00:00 1.7 25 Nordeste 48 Este -- -- -- 86
2019-12-03 00:00:00 2.1 27 Nordeste 52 Nordeste -- -- -- 82
2019-12-02 23:00:00 2.2 31 Este 51 Este -- -- -- 82
2019-12-02 22:00:00 2.8 24 Nordeste 49 Nordeste -- -- -- 79
2019-12-02 21:00:00 3.5 29 Nordeste 50 Este -- -- -- 79
2019-12-02 20:00:00 4.4 31 Nordeste 49 Nordeste -- -- -- 82
2019-12-02 19:00:00 5.4 33 Nordeste 50 Nordeste -- -- -- 80
2019-12-02 18:00:00 6.4 28 Nordeste 53 Este -- -- -- 78
2019-12-02 17:00:00 7.7 31 Este 57 Nordeste -- -- -- 71
2019-12-02 16:00:00 8.4 33 Nordeste 52 Nordeste -- -- -- 72
2019-12-02 15:00:00 8.6 31 Nordeste 53 Este -- -- -- 74
2019-12-02 14:00:00 8 39 Nordeste 59 Nordeste -- -- -- 75
2019-12-02 13:00:00 7.9 40 Nordeste 59 Nordeste -- -- -- 78
2019-12-02 12:00:00 7.9 41 Nordeste 59 Nordeste -- -- -- 77
2019-12-02 11:00:00 6.8 38 Nordeste 53 Nordeste -- -- -- 79
2019-12-02 10:00:00 5.8 34 Nordeste 50 Nordeste -- -- -- 82
2019-12-02 09:00:00 3.1 17 Nordeste 29 Nordeste -- -- -- 87
2019-12-02 08:00:00 2.8 19 Nordeste 33 Nordeste -- -- -- 88
2019-12-02 07:00:00 2.4 13 Nordeste 29 Nordeste -- -- -- 89
2019-12-02 06:00:00 3 24 Nordeste 35 Nordeste -- -- -- 87
2019-12-02 05:00:00 3 17 Nordeste 31 Nordeste -- -- -- 88
2019-12-02 04:00:00 3.5 24 Nordeste 40 Nordeste -- -- -- 87
2019-12-02 03:00:00 3.8 21 Nordeste 35 Nordeste -- -- -- 88
2019-12-02 02:00:00 4.2 22 Nordeste 34 Nordeste -- -- -- 91
2019-12-02 01:00:00 4.6 21 Nordeste 38 Nordeste -- -- -- 91
2019-12-02 00:00:00 5.6 30 Nordeste 46 Nordeste -- -- -- 90
2019-12-01 23:00:00 5.8 20 Nordeste 29 Nordeste -- -- -- 87
2019-12-01 22:00:00 5.8 18 Nordeste 25 Nordeste -- -- -- 93
2019-12-01 21:00:00 5.4 15 Nordeste 21 Nordeste -- -- -- 95
2019-12-01 20:00:00 5.3 17 Nordeste 28 Nordeste -- -- -- 96
2019-12-01 19:00:00 5.3 18 Nordeste 26 Nordeste -- -- -- 95
2019-12-01 18:00:00 5.8 20 Nordeste 35 Norte -- -- -- 92
2019-12-01 17:00:00 7 29 Nordeste 40 Nordeste -- -- -- 91
2019-12-01 16:00:00 7.6 20 Nordeste 32 Nordeste -- -- -- 93
2019-12-01 15:00:00 7.4 19 Nordeste 34 Nordeste -- -- -- 94
2019-12-01 14:00:00 8.1 14 Nordeste 25 Nordeste -- -- -- 96
2019-12-01 13:00:00 6.9 14 Nordeste 21 Nordeste -- -- -- 99
2019-12-01 12:00:00 7.4 11 Nordeste 15 Norte -- -- -- 97
2019-12-01 11:00:00 7.5 10 Oeste 23 Sudoeste -- -- -- 97
2019-12-01 10:00:00 7 14 Sudoeste 21 Sudoeste -- -- -- 99
2019-12-01 09:00:00 6 10 Sur 21 Sudoeste -- -- -- 98
2019-12-01 08:00:00 6 17 Sudoeste 27 Sudoeste -- -- -- 97
2019-12-01 07:00:00 6 19 Sudoeste 31 Sudoeste -- -- -- 98
2019-12-01 06:00:00 6.1 19 Sur 36 Sur -- -- -- 99
2019-12-01 05:00:00 6 25 Sur 39 Sudoeste -- -- -- 98
2019-12-01 04:00:00 5.6 24 Sudoeste 42 Sudoeste -- -- -- 97
2019-12-01 03:00:00 6.1 23 Sudoeste 32 Sudoeste -- -- -- 97
2019-12-01 02:00:00 6.2 18 Sudoeste 31 Sudoeste -- -- -- 97
2019-12-01 01:00:00 6.1 21 Sudoeste 31 Sudoeste -- -- -- 97
2019-12-01 00:00:00 5.5 17 Sudoeste 31 Sudoeste -- -- -- 97
2019-11-30 23:00:00 4.3 11 Sur 16 Sur -- -- -- 97
2019-11-30 22:00:00 4.4 6 Sudoeste 25 Sudoeste -- -- -- 97
2019-11-30 21:00:00 4.6 12 Sudoeste 17 Sudoeste -- -- -- 96
2019-11-30 20:00:00 5.2 13 Oeste 31 Sudoeste -- -- -- 93
2019-11-30 19:00:00 6.2 23 Oeste 39 Oeste -- -- -- 91
2019-11-30 18:00:00 7.3 32 Oeste 46 Sudoeste -- -- -- 89
2019-11-30 17:00:00 8.5 30 Oeste 38 Sudoeste -- -- -- 87
2019-11-30 16:00:00 7.8 30 Sudoeste 57 Oeste -- -- -- 87
2019-11-30 15:00:00 7.9 39 Oeste 58 Oeste -- -- -- 96
2019-11-30 14:00:00 9 25 Oeste 39 Oeste -- -- -- 100
2019-11-30 13:00:00 9.1 27 Oeste 45 Oeste -- -- -- 99
2019-11-30 12:00:00 10.4 35 Oeste 50 Oeste -- -- -- 98
2019-11-30 11:00:00 11.4 35 Sudoeste 46 Sudoeste -- -- -- 100
2019-11-30 10:00:00 11.3 35 Sudoeste 52 Sudoeste -- -- -- 99
2019-11-30 09:00:00 11.3 37 Sudoeste 51 Sudoeste -- -- -- 99
2019-11-30 08:00:00 11.4 34 Sudoeste 45 Sudoeste -- -- -- 99
2019-11-30 07:00:00 11.2 32 Sudoeste 49 Sudoeste -- -- -- 99
2019-11-30 06:00:00 11.1 34 Sudoeste 50 Sudoeste -- -- -- 98
2019-11-30 05:00:00 11.2 30 Sudoeste 47 Sudoeste -- -- -- 97
2019-11-30 04:00:00 11 26 Sudoeste 36 Sudoeste -- -- -- 97
2019-11-30 03:00:00 11.3 32 Sudoeste 44 Sudoeste -- -- -- 98
2019-11-30 02:00:00 11.5 26 Sudoeste 40 Sudoeste -- -- -- 98
2019-11-30 01:00:00 11.6 30 Sudoeste 44 Sudoeste -- -- -- 99
2019-11-30 00:00:00 11.6 27 Sudoeste 41 Sudoeste -- -- -- 99
2019-11-29 23:00:00 11.7 27 Sudoeste 39 Sudoeste -- -- -- 99
2019-11-29 22:00:00 11.7 24 Sudoeste 35 Sudoeste -- -- -- 99
2019-11-29 21:00:00 10.4 9 Sudoeste 12 Sudoeste -- -- -- 98
2019-11-29 20:00:00 11.1 12 Oeste 22 Oeste -- -- -- 96
2019-11-29 19:00:00 11.7 13 Oeste 17 Oeste -- -- -- 98
2019-11-29 18:00:00 12.1 10 Sudoeste 18 Oeste -- -- -- 94
2019-11-29 17:00:00 12.8 12 Oeste 24 Sudoeste -- -- -- 92
2019-11-29 16:00:00 13 19 Sudoeste 30 Sudoeste -- -- -- 90
2019-11-29 15:00:00 13.3 20 Sudoeste 30 Sudoeste -- -- -- 90
2019-11-29 14:00:00 13.2 21 Sudoeste 27 Sudoeste -- -- -- 92
2019-11-29 13:00:00 12.4 21 Sudoeste 30 Sudoeste -- -- -- 95
2019-11-29 12:00:00 11.7 17 Sudoeste 21 Oeste -- -- -- 100
2019-11-29 11:00:00 11 14 Sudoeste 24 Sudoeste -- -- -- 100
2019-11-29 10:00:00 11.1 11 Oeste 14 Sudoeste -- -- -- 100
2019-11-29 09:00:00 10.8 10 Oeste 18 Oeste -- -- -- 100
2019-11-29 08:00:00 11 15 Oeste 23 Sudoeste -- -- -- 100
2019-11-29 07:00:00 11 16 Sudoeste 29 Sudoeste -- -- -- 100
2019-11-29 06:00:00 11.1 21 Sudoeste 30 Sudoeste -- -- -- 100
2019-11-29 05:00:00 11.2 20 Sudoeste 27 Sudoeste -- -- -- 100
2019-11-29 04:00:00 11.4 20 Oeste 35 Sudoeste -- -- -- 100
2019-11-29 03:00:00 11.4 22 Sudoeste 34 Sudoeste -- -- -- 100
2019-11-29 02:00:00 11.4 26 Sudoeste 40 Sudoeste -- -- -- 100
2019-11-29 01:00:00 11.3 31 Sudoeste 40 Sudoeste -- -- -- 100
2019-11-29 00:00:00 11 30 Sudoeste 40 Sudoeste -- -- -- 100
2019-11-28 23:00:00 10.6 28 Sudoeste 45 Sudoeste -- -- -- 99
2019-11-28 22:00:00 10.8 32 Sudoeste 48 Sudoeste -- -- -- 99
2019-11-28 21:00:00 10.5 37 Sudoeste 53 Sudoeste -- -- -- 99
2019-11-28 20:00:00 10.3 36 Sudoeste 60 Sudoeste -- -- -- 98
2019-11-28 19:00:00 10.8 44 Sudoeste 59 Sudoeste -- -- -- 93
2019-11-28 18:00:00 11 41 Sudoeste 55 Sudoeste -- -- -- 89
2019-11-28 17:00:00 10.5 32 Sudoeste 59 Sudoeste -- -- -- 94
2019-11-28 16:00:00 11.6 46 Sudoeste 61 Sudoeste -- -- -- 86
2019-11-28 15:00:00 12.2 46 Sudoeste 63 Sudoeste -- -- -- 83
2019-11-28 14:00:00 12.3 49 Sudoeste 64 Sudoeste -- -- -- 86
2019-11-28 13:00:00 11.2 40 Sudoeste 50 Sudoeste -- -- -- 90
2019-11-28 12:00:00 10.9 31 Sudoeste 45 Sudoeste -- -- -- 93
2019-11-28 11:00:00 9.8 31 Sudoeste 42 Sudoeste -- -- -- 97
2019-11-28 10:00:00 9.7 29 Sudoeste 43 Sudoeste -- -- -- 96
2019-11-28 09:00:00 9.4 32 Sudoeste 43 Sudoeste -- -- -- 98
2019-11-28 08:00:00 9.2 28 Sudoeste 44 Sudoeste -- -- -- 99
2019-11-28 07:00:00 8.9 28 Sudoeste 49 Sudoeste -- -- -- 99
2019-11-28 06:00:00 8.8 29 Sudoeste 46 Sudoeste -- -- -- 99
2019-11-28 05:00:00 8.7 29 Sudoeste 48 Sudoeste -- -- -- 98
2019-11-28 04:00:00 8.9 30 Sudoeste 47 Sudoeste -- -- -- 98
2019-11-28 03:00:00 8.7 31 Sudoeste 45 Sudoeste -- -- -- 97
2019-11-28 02:00:00 8.8 31 Sudoeste 44 Sudoeste -- -- -- 97
2019-11-28 01:00:00 8.6 34 Sudoeste 49 Sudoeste -- -- -- 97
2019-11-28 00:00:00 8.4 28 Sudoeste 44 Sudoeste -- -- -- 97
2019-11-27 23:00:00 8.2 31 Sudoeste 44 Sudoeste -- -- -- 97
2019-11-27 22:00:00 8.2 27 Sudoeste 40 Sudoeste -- -- -- 97
2019-11-27 21:00:00 8.2 26 Sudoeste 43 Sudoeste -- -- -- 98
2019-11-27 20:00:00 8.2 29 Sudoeste 45 Sudoeste -- -- -- 98
2019-11-27 19:00:00 8.4 32 Sudoeste 49 Sudoeste -- -- -- 95
2019-11-27 18:00:00 9.4 32 Sudoeste 46 Sudoeste -- -- -- 84
2019-11-27 17:00:00 10.2 35 Sudoeste 63 Sudoeste -- -- -- 82
2019-11-27 16:00:00 10.1 39 Sudoeste 55 Sudoeste -- -- -- 85
2019-11-27 15:00:00 9.7 32 Sudoeste 50 Sudoeste -- -- -- 91
2019-11-27 14:00:00 9.8 35 Sudoeste 60 Sudoeste -- -- -- 88
2019-11-27 06:00:00 -- -- -- -- -- -- -- -- --
2019-11-27 05:00:00 -- -- -- -- -- -- -- -- --
2019-11-27 04:00:00 -- -- -- -- -- -- -- -- --
2019-11-27 03:00:00 7.1 39 Sudoeste 56 Sudoeste -- -- -- 90
2019-11-27 02:00:00 7.5 35 Sudoeste 46 Sudoeste -- -- -- 93
2019-11-27 01:00:00 8.1 33 Oeste 46 Sudoeste -- -- -- 94
2019-11-27 00:00:00 7.9 31 Sudoeste 51 Sudoeste -- -- -- 96
2019-11-26 23:00:00 8.1 37 Oeste 50 Oeste -- -- -- 96
2019-11-26 22:00:00 8.8 35 Oeste 54 Sudoeste -- -- -- 98
2019-11-26 21:00:00 9.4 29 Oeste 50 Oeste -- -- -- 99
2019-11-26 20:00:00 9.1 45 Oeste 73 Oeste -- -- -- 98
2019-11-26 19:00:00 11.4 49 Sudoeste 73 Sudoeste -- -- -- 87
2019-11-26 18:00:00 11.5 48 Sudoeste 73 Sudoeste -- -- -- 85
2019-11-26 17:00:00 12.3 46 Sudoeste 62 Sudoeste -- -- -- 93
2019-11-26 16:00:00 12.5 40 Sudoeste 56 Sudoeste -- -- -- 100
2019-11-26 15:00:00 12.8 39 Sudoeste 55 Sudoeste -- -- -- 99
2019-11-26 14:00:00 12.8 35 Sudoeste 54 Sudoeste -- -- -- 99
2019-11-26 13:00:00 12.4 33 Sudoeste 58 Sudoeste -- -- -- 99
2019-11-26 12:00:00 12.1 32 Sudoeste 52 Sudoeste -- -- -- 99
2019-11-26 11:00:00 11.6 33 Sudoeste 55 Sudoeste -- -- -- 99
2019-11-26 10:00:00 11.5 37 Sudoeste 54 Sudoeste -- -- -- 98
2019-11-26 09:00:00 11.2 39 Sudoeste 57 Sudoeste -- -- -- 98
2019-11-26 08:00:00 11.2 31 Sudoeste 48 Sudoeste -- -- -- 99
2019-11-26 07:00:00 11 36 Sudoeste 45 Sudoeste -- -- -- 99
2019-11-26 06:00:00 10.3 17 Sudoeste 31 Sudoeste -- -- -- 99
2019-11-26 05:00:00 10.1 18 Sudoeste 28 Sudoeste -- -- -- 96
2019-11-26 04:00:00 9.6 15 Sudoeste 23 Sudoeste -- -- -- 97
2019-11-26 03:00:00 9.8 16 Sudoeste 28 Sudoeste -- -- -- 94
2019-11-26 02:00:00 9.9 18 Sudoeste 32 Sudoeste -- -- -- 94
2019-11-26 01:00:00 9.8 25 Sudoeste 36 Sudoeste -- -- -- 96
2019-11-26 00:00:00 9.9 26 Sudoeste 35 Sudoeste -- -- -- 97
2019-11-25 23:00:00 9.4 17 Sudoeste 23 Sudoeste -- -- -- 96
2019-11-25 22:00:00 9.9 20 Sudoeste 26 Sudoeste -- -- -- 93
2019-11-25 21:00:00 9.9 8 Sudoeste 26 Sudoeste -- -- -- 91
2019-11-25 20:00:00 9.7 20 Sudoeste 29 Sudoeste -- -- -- 89
2019-11-25 19:00:00 9.9 20 Sudoeste 35 Oeste -- -- -- 86
2019-11-25 18:00:00 10.7 27 Oeste 36 Oeste -- -- -- 84
2019-11-25 17:00:00 11.4 21 Sudoeste 41 Oeste -- -- -- 83
2019-11-25 16:00:00 12 33 Oeste 42 Sudoeste -- -- -- 79
2019-11-25 15:00:00 12 28 Oeste 46 Oeste -- -- -- 77
2019-11-25 14:00:00 12.2 39 Oeste 52 Oeste -- -- -- 80
2019-11-25 13:00:00 11.8 35 Oeste 51 Oeste -- -- -- 83
2019-11-25 12:00:00 11.6 39 Oeste 49 Oeste -- -- -- 88
2019-11-25 11:00:00 10.4 31 Oeste 45 Sudoeste -- -- -- 100
2019-11-25 10:00:00 10 28 Sudoeste 40 Sudoeste -- -- -- 100
2019-11-25 09:00:00 9.6 27 Sudoeste 38 Sudoeste -- -- -- 100
2019-11-25 08:00:00 9.7 19 Oeste 36 Sudoeste -- -- -- 99
2019-11-25 07:00:00 9.7 22 Sudoeste 35 Sudoeste -- -- -- 99
2019-11-25 06:00:00 9.8 23 Sudoeste 33 Sudoeste -- -- -- 97
2019-11-25 05:00:00 9.5 18 Sudoeste 32 Sudoeste -- -- -- 98
2019-11-25 04:00:00 9.7 27 Sudoeste 37 Oeste -- -- -- 98
2019-11-25 03:00:00 9.9 34 Oeste 48 Oeste -- -- -- 97
2019-11-25 02:00:00 10.2 28 Sudoeste 50 Sudoeste -- -- -- 99
2019-11-25 01:00:00 9.9 35 Sudoeste 47 Sudoeste -- -- -- 100
2019-11-25 00:00:00 9.7 38 Sudoeste 51 Sudoeste -- -- -- 99
2019-11-24 23:00:00 9.5 32 Sudoeste 49 Sudoeste -- -- -- 99
2019-11-24 22:00:00 8.9 32 Sudoeste 50 Sudoeste -- -- -- 98
2019-11-24 21:00:00 8.8 31 Sudoeste 43 Sudoeste -- -- -- 98
2019-11-24 20:00:00 8.4 21 Sudoeste 33 Sudoeste -- -- -- 96
2019-11-24 19:00:00 8.1 22 Sudoeste 41 Sudoeste -- -- -- 96
2019-11-24 18:00:00 8.1 28 Sudoeste 40 Sudoeste -- -- -- 96
2019-11-24 17:00:00 8.6 32 Sudoeste 42 Sudoeste -- -- -- 91
2019-11-24 16:00:00 9 27 Sudoeste 41 Sudoeste -- -- -- 84
2019-11-24 15:00:00 8.4 28 Sudoeste 37 Sudoeste -- -- -- 85
2019-11-24 14:00:00 8 24 Sudoeste 35 Sudoeste -- -- -- 86
2019-11-24 13:00:00 7.5 19 Sudoeste 32 Sudoeste -- -- -- 87
2019-11-24 12:00:00 5.8 21 Sudoeste 30 Sudoeste -- -- -- 93
2019-11-24 11:00:00 5.4 21 Sudoeste 28 Sudoeste -- -- -- 98
2019-11-24 10:00:00 4.4 14 Sudoeste 23 Sudoeste -- -- -- 100
2019-11-24 09:00:00 3.6 18 Sudoeste 23 Sudoeste -- -- -- 99
2019-11-24 08:00:00 3.7 9 Sudoeste 18 Sudoeste -- -- -- 99
2019-11-24 07:00:00 2.6 13 Sudoeste 17 Sur -- -- -- 100
2019-11-24 06:00:00 1.9 11 Sudoeste 18 Oeste -- -- -- 98
2019-11-24 05:00:00 2 12 Sudoeste 18 Oeste -- -- -- 97
2019-11-24 04:00:00 2.6 17 Oeste 26 Oeste -- -- -- 97
2019-11-24 03:00:00 2.7 16 Oeste 26 Oeste -- -- -- 97
2019-11-24 02:00:00 3.5 19 Oeste 29 Sudoeste -- -- -- 96
2019-11-24 01:00:00 4.6 22 Oeste 35 Oeste -- -- -- 93
2019-11-24 00:00:00 4.6 14 Oeste 38 Oeste -- -- -- 94
2019-11-23 23:00:00 5.3 30 Oeste 44 Oeste -- -- -- 92
2019-11-23 22:00:00 5.8 32 Oeste 44 Oeste -- -- -- 88
2019-11-23 21:00:00 5.6 30 Oeste 39 Oeste -- -- -- 87
2019-11-23 20:00:00 6 21 Oeste 30 Oeste -- -- -- 83
2019-11-23 19:00:00 6.4 20 Oeste 35 Oeste -- -- -- 79
2019-11-23 18:00:00 7.4 30 Oeste 44 Noroeste -- -- -- 74
2019-11-23 17:00:00 8.9 28 Oeste 47 Oeste -- -- -- 67
2019-11-23 16:00:00 9.3 32 Oeste 44 Sudoeste -- -- -- 69
2019-11-23 15:00:00 9.5 30 Oeste 44 Oeste -- -- -- 65
2019-11-23 14:00:00 9.2 32 Sudoeste 46 Sudoeste -- -- -- 71
2019-11-23 13:00:00 8.6 31 Oeste 52 Oeste -- -- -- 74
2019-11-23 12:00:00 8.2 27 Oeste 47 Sudoeste -- -- -- 77
2019-11-23 11:00:00 7.5 34 Oeste 53 Oeste -- -- -- 80
2019-11-23 10:00:00 5.9 35 Oeste 47 Oeste -- -- -- 87
2019-11-23 09:00:00 4.2 30 Oeste 41 Oeste -- -- -- 91
2019-11-23 08:00:00 3.8 26 Sudoeste 39 Oeste -- -- -- 90
2019-11-23 07:00:00 3.7 33 Oeste 45 Oeste -- -- -- 88
2019-11-23 06:00:00 4 32 Oeste 51 Oeste -- -- -- 90
2019-11-23 05:00:00 4.5 39 Oeste 58 Oeste -- -- -- 91
2019-11-23 04:00:00 5.1 41 Oeste 67 Oeste -- -- -- 87
2019-11-23 03:00:00 5.3 45 Oeste 59 Oeste -- -- -- 87
2019-11-23 02:00:00 5.3 40 Oeste 59 Sudoeste -- -- -- 88
2019-11-23 01:00:00 5.6 41 Oeste 64 Oeste -- -- -- 88
2019-11-23 00:00:00 6.1 40 Oeste 61 Oeste -- -- -- 90
2019-11-22 23:00:00 5.9 35 Oeste 62 Oeste -- -- -- 93
2019-11-22 22:00:00 7.2 38 Sudoeste 58 Oeste -- -- -- 96
2019-11-22 21:00:00 7.6 37 Sudoeste 51 Sudoeste -- -- -- 96
2019-11-22 20:00:00 7.8 42 Sudoeste 57 Sudoeste -- -- -- 93
2019-11-22 19:00:00 7.7 37 Sudoeste 51 Sudoeste -- -- -- 93
2019-11-22 18:00:00 7.5 36 Sudoeste 56 Sudoeste -- -- -- 94
2019-11-22 17:00:00 7.2 38 Sudoeste 57 Oeste -- -- -- 96
2019-11-22 16:00:00 10.3 43 Sudoeste 67 Sudoeste -- -- -- 77
2019-11-22 15:00:00 10.5 43 Sudoeste 64 Sudoeste -- -- -- 90
2019-11-22 14:00:00 10.4 41 Sudoeste 61 Sudoeste -- -- -- 97
2019-11-22 13:00:00 10.3 38 Sudoeste 66 Sudoeste -- -- -- 99
2019-11-22 12:00:00 9.9 46 Sudoeste 77 Sudoeste -- -- -- 96
2019-11-22 11:00:00 10.3 51 Sudoeste 69 Sudoeste -- -- -- 89
2019-11-22 10:00:00 9.2 48 Sudoeste 64 Sur -- -- -- 94
2019-11-22 09:00:00 8.1 48 Sudoeste 66 Sudoeste -- -- -- 95
2019-11-22 08:00:00 7.3 46 Sur 68 Sur -- -- -- 96
2019-11-22 07:00:00 7.1 40 Sur 57 Sur -- -- -- 96
2019-11-22 06:00:00 6.8 32 Sur 46 Sur -- -- -- 96
2019-11-22 05:00:00 7.2 31 Sudoeste 50 Sudoeste -- -- -- 95
2019-11-22 04:00:00 7.1 26 Sudoeste 39 Sudoeste -- -- -- 95
2019-11-22 03:00:00 6.7 15 Sudoeste 31 Sudoeste -- -- -- 96
2019-11-22 02:00:00 6.8 22 Sudoeste 30 Sudoeste -- -- -- 96
2019-11-22 01:00:00 6.5 14 Sudoeste 22 Sudoeste -- -- -- 97
2019-11-22 00:00:00 6.1 13 Sudoeste 22 Sudoeste -- -- -- 96
2019-11-21 23:00:00 5.7 10 Sur 17 Sudoeste -- -- -- 96
2019-11-21 22:00:00 5.9 14 Sudoeste 21 Sudoeste -- -- -- 94
2019-11-21 21:00:00 5.7 12 Sudoeste 15 Sudoeste -- -- -- 95
2019-11-21 20:00:00 5.7 11 Sudoeste 14 Sudoeste -- -- -- 90
2019-11-21 19:00:00 5.8 6 Sudeste 7 Sudeste -- -- -- 87
2019-11-21 18:00:00 7.4 3 Sudoeste 14 Noroeste -- -- -- 82
2019-11-21 17:00:00 8.1 10 Oeste 27 Sudoeste -- -- -- 80
2019-11-21 16:00:00 8.5 20 Sudoeste 29 Sudoeste -- -- -- 81
2019-11-21 15:00:00 7.4 18 Oeste 28 Oeste -- -- -- 92
2019-11-21 14:00:00 7.8 21 Oeste 27 Oeste -- -- -- 82
2019-11-21 13:00:00 7.7 16 Oeste 27 Oeste 0 -- -- 85
2019-11-21 12:00:00 7.5 15 Sudoeste 25 Sudoeste 0 -- -- 92
2019-11-21 11:00:00 6.7 19 Sudoeste 26 Sudoeste 0 -- -- 97
2019-11-21 10:00:00 5.7 16 Oeste 23 Oeste 0 -- -- 100
2019-11-21 09:00:00 5.5 15 Sudoeste 29 Oeste 0 -- -- 99
2019-11-21 08:00:00 -- -- -- -- -- -- -- -- --
2019-11-21 07:00:00 -- -- -- -- -- -- -- -- --
2019-11-21 06:00:00 -- -- -- -- -- -- -- -- --
2019-11-21 05:00:00 -- -- -- -- -- -- -- -- --
2019-11-21 04:00:00 -- -- -- -- -- -- -- -- --
2019-11-21 03:00:00 -- -- -- -- -- -- -- -- --
2019-11-21 02:00:00 -- -- -- -- -- -- -- -- --
2019-11-21 01:00:00 -- -- -- -- -- -- -- -- --
2019-11-21 00:00:00 -- -- -- -- -- -- -- -- --
2019-11-20 23:00:00 -- -- -- -- -- -- -- -- --
2019-11-20 22:00:00 -- -- -- -- -- -- -- -- --
2019-11-20 21:00:00 -- -- -- -- -- -- -- -- --
2019-11-20 20:00:00 -- -- -- -- -- -- -- -- --
2019-11-20 19:00:00 5.8 19 Sudoeste 28 Sudoeste 0.2 -- -- 96
2019-11-20 18:00:00 6.2 17 Sudoeste 26 Sudoeste 0 -- -- 94
2019-11-20 17:00:00 6.9 17 Sudoeste 28 Sudoeste 0 -- -- 91
2019-11-20 16:00:00 7.3 22 Sudoeste 39 Sudoeste 0 -- -- 92
2019-11-20 15:00:00 6.1 22 Sudoeste 30 Sudoeste 0 -- -- 96
2019-11-20 14:00:00 5.7 21 Sudoeste 30 Sudoeste 0 -- -- 96
2019-11-20 13:00:00 5.6 18 Sudoeste 30 Sudoeste 0 -- -- 97
2019-11-20 12:00:00 5.4 21 Sudoeste 30 Sudoeste 0 -- -- 96
2019-11-20 11:00:00 4.9 21 Sudoeste 30 Sudoeste 0 -- -- 97
2019-11-20 10:00:00 5.1 14 Sudoeste 23 Sudoeste 0 -- -- 98
2019-11-20 09:00:00 5.2 18 Sudoeste 24 Sudoeste 0 -- -- 98
2019-11-20 08:00:00 5.3 11 Sudoeste 18 Sudoeste 0 -- -- 98
2019-11-20 07:00:00 5.1 9 Sudoeste 17 Sudoeste 0 -- -- 98
2019-11-20 06:00:00 4.9 10 Sur 13 Sur 0 -- -- 98
2019-11-20 05:00:00 5 8 Sur 13 Sur 0 -- -- 97
2019-11-20 04:00:00 4.9 9 Sudoeste 15 Sur 0 -- -- 97
2019-11-20 03:00:00 4.6 6 Sur 13 Sur 0 -- -- 97
2019-11-20 02:00:00 4.5 8 Sur 22 Sudoeste 0 -- -- 95
2019-11-20 01:00:00 5.2 12 Sudoeste 21 Sudoeste 0 -- -- 91
2019-11-20 00:00:00 6.1 14 Sudoeste 19 Sudoeste 0 -- -- 86
2019-11-19 23:00:00 6.3 9 Sur 18 Sudoeste 0 -- -- 85
2019-11-19 22:00:00 6.4 6 Sur 9 Sur 0 -- -- 86
2019-11-19 21:00:00 6.4 4 Sudoeste 6 Sudoeste 0 -- -- 83
2019-11-19 20:00:00 6.7 5 Sudoeste 8 Sudoeste 0 -- -- 82
2019-11-19 19:00:00 7 4 Sudoeste 8 Sudoeste 0 -- -- 80
2019-11-19 18:00:00 7.4 8 Sudoeste 17 Sudoeste 0 -- -- 77
2019-11-19 17:00:00 7.9 14 Sudoeste 19 Oeste 0 -- -- 73
2019-11-19 16:00:00 8.4 15 Sudoeste 25 Sudoeste 0 -- -- 69
2019-11-19 15:00:00 8.4 14 Sudoeste 22 Sudoeste 0 -- -- 70
2019-11-19 14:00:00 8.2 9 Sudoeste 17 Sudoeste 0 -- -- 74
2019-11-19 13:00:00 6.3 5 Sur 9 Sur 0 -- -- 85
2019-11-19 12:00:00 3.9 4 Sudeste 9 Este 0 -- -- 91
2019-11-19 11:00:00 2.4 4 Este 7 Sudeste 0 -- -- 93
2019-11-19 10:00:00 0.6 4 Sudeste 8 Sudeste 0 -- -- 97
2019-11-19 09:00:00 -0.2 5 Sudeste 9 Sudeste 0 -- -- 95
2019-11-19 08:00:00 -0.2 5 Sudeste 9 Sudeste 0 -- -- 94
2019-11-19 07:00:00 0.9 5 Este 6 Este 0 -- -- 92
2019-11-19 06:00:00 1.7 3 Nordeste 4 Nordeste 0 -- -- 89
2019-11-19 05:00:00 1.7 3 Este 5 Oeste 0 -- -- 87
2019-11-19 04:00:00 2.5 5 Sudoeste 9 Sudoeste 0 -- -- 86
2019-11-19 03:00:00 3.3 3 Norte 6 Norte 0 -- -- 83
2019-11-19 02:00:00 2.8 0 Calma 8 Nordeste 0 -- -- 84
2019-11-19 01:00:00 3.5 5 Nordeste 9 Este 0 -- -- 81
2019-11-19 00:00:00 3.9 5 Este 12 Nordeste 0 -- -- 78
2019-11-18 23:00:00 4.5 9 Nordeste 15 Nordeste 0 -- -- 76
2019-11-18 22:00:00 6.7 2 Norte 9 Noroeste 0 -- -- 74
2019-11-18 21:00:00 6.7 7 Noroeste 14 Noroeste 0 -- -- 74
2019-11-18 20:00:00 7.2 12 Noroeste 17 Noroeste 0 -- -- 74
2019-11-18 19:00:00 7.8 10 Oeste 14 Noroeste 0 -- -- 70
2019-11-18 18:00:00 8.5 9 Oeste 15 Sudoeste 0 -- -- 69
2019-11-18 17:00:00 9.4 11 Sudoeste 15 Sudoeste 0 -- -- 66
2019-11-18 16:00:00 10.7 6 Este 14 Sudoeste 0 -- -- 50
2019-11-18 15:00:00 10.4 4 Oeste 18 Nordeste 0 -- -- 55
2019-11-18 14:00:00 10.1 5 Norte 22 Norte 0 -- -- 57
2019-11-18 13:00:00 10 6 Norte 17 Nordeste 0 -- -- 57
2019-11-18 12:00:00 8.8 5 Nordeste 18 Nordeste 0 -- -- 63
2019-11-18 11:00:00 7.3 6 Norte 12 Norte 0 -- -- 69
2019-11-18 10:00:00 4.9 8 Norte 12 Norte 0 -- -- 80
2019-11-18 09:00:00 2.8 10 Norte 17 Noroeste 0 -- -- 84
2019-11-18 08:00:00 2 14 Noroeste 18 Oeste 0 -- -- 89
2019-11-18 07:00:00 1.5 13 Noroeste 17 Oeste 0 -- -- 93
2019-11-18 06:00:00 1.5 10 Oeste 17 Noroeste 0 -- -- 92
2019-11-18 05:00:00 1.6 13 Oeste 17 Oeste 0 -- -- 93
2019-11-18 04:00:00 2.2 6 Noroeste 12 Noroeste 0 -- -- 90
2019-11-18 03:00:00 2.5 9 Noroeste 18 Oeste 0 -- -- 91
2019-11-18 02:00:00 2.8 14 Noroeste 24 Oeste 0 -- -- 94
2019-11-18 01:00:00 2.7 18 Oeste 24 Oeste 0 -- -- 96
2019-11-18 00:00:00 2.9 19 Oeste 33 Oeste 0 -- -- 94
2019-11-17 23:00:00 3 20 Oeste 32 Oeste 0 -- -- 91
2019-11-17 22:00:00 4 23 Oeste 41 Oeste 0 -- -- 86
2019-11-17 21:00:00 4.6 33 Oeste 43 Oeste 0 -- -- 83
2019-11-17 20:00:00 4.4 18 Oeste 28 Oeste 0 -- -- 82
2019-11-17 19:00:00 5.7 18 Oeste 38 Oeste 0 -- -- 75
2019-11-17 18:00:00 7.1 23 Oeste 33 Oeste 0 -- -- 77
2019-11-17 17:00:00 9.3 28 Oeste 43 Oeste 0 -- -- 70
2019-11-17 16:00:00 8.8 21 Oeste 40 Oeste 0 -- -- 91
2019-11-17 15:00:00 8.5 29 Oeste 43 Oeste 0 -- -- 99
2019-11-17 14:00:00 7.8 27 Oeste 42 Oeste 0 -- -- 100
2019-11-17 13:00:00 6.9 23 Oeste 34 Sudoeste 0 -- -- 100
2019-11-17 12:00:00 6.2 25 Sudoeste 36 Sudoeste 0 -- -- 100
2019-11-17 11:00:00 5.3 24 Sudoeste 34 Sudoeste 0.2 -- -- 100
2019-11-17 10:00:00 4.8 23 Sudoeste 36 Sudoeste 0 -- -- 100
2019-11-17 09:00:00 4.5 26 Sudoeste 37 Sudoeste 0 -- -- 100
2019-11-17 08:00:00 4.2 21 Sudoeste 35 Sudoeste 0 -- -- 99
2019-11-17 07:00:00 4.1 23 Sudoeste 30 Sudoeste 0 -- -- 99
2019-11-17 06:00:00 3.8 18 Sudoeste 30 Sudoeste 0 -- -- 98
2019-11-17 05:00:00 4 21 Sudoeste 27 Sudoeste 0 -- -- 93
2019-11-17 04:00:00 3.8 21 Sudoeste 29 Sudoeste 0 -- -- 90
2019-11-17 03:00:00 4.2 17 Sudoeste 25 Sudoeste 0 -- -- 87
2019-11-17 02:00:00 4.1 15 Sudoeste 25 Sudoeste 0 -- -- 86
2019-11-17 01:00:00 4.3 14 Sudoeste 22 Sudoeste 0 -- -- 85
2019-11-17 00:00:00 4.2 12 Sudoeste 22 Sudoeste 0 -- -- 86
2019-11-16 23:00:00 3.7 13 Sudoeste 31 Oeste 0 -- -- 86
2019-11-16 22:00:00 4.3 20 Oeste 26 Oeste 0 -- -- 84
2019-11-16 21:00:00 3.9 13 Oeste 26 Oeste 0 -- -- 81
2019-11-16 20:00:00 4.7 19 Oeste 31 Oeste 0 -- -- 76
2019-11-16 19:00:00 4.7 17 Oeste 33 Oeste 0 -- -- 78
2019-11-16 18:00:00 4.7 20 Oeste 34 Oeste 0 -- -- 78
2019-11-16 17:00:00 5.1 21 Oeste 44 Oeste 0 -- -- 70
2019-11-16 16:00:00 7.1 30 Oeste 42 Oeste 0 -- -- 70
2019-11-16 15:00:00 8 29 Oeste 44 Oeste 0 -- -- 62
2019-11-16 14:00:00 7.2 17 Oeste 28 Oeste 0 -- -- 71
2019-11-16 13:00:00 5.9 23 Oeste 31 Oeste 0 -- -- 77
2019-11-16 12:00:00 5.7 21 Oeste 29 Oeste 0 -- -- 78
2019-11-16 11:00:00 3 23 Oeste 30 Oeste 0 -- -- 92
2019-11-16 10:00:00 1.6 17 Oeste 22 Oeste 0 -- -- 96
2019-11-16 09:00:00 -0.7 13 Oeste 25 Oeste 0 -- -- 98
2019-11-16 08:00:00 -1 14 Oeste 21 Oeste 0 -- -- 96
2019-11-16 07:00:00 -1 15 Oeste 21 Oeste 0 -- -- 96
2019-11-16 06:00:00 -0.9 14 Oeste 18 Oeste 0 -- -- 96
2019-11-16 05:00:00 -1.1 10 Oeste 16 Oeste 0 -- -- 94
2019-11-16 04:00:00 -0.8 14 Oeste 21 Oeste 0 -- -- 95
2019-11-16 03:00:00 -0.6 17 Oeste 20 Oeste 0 -- -- 95
2019-11-16 02:00:00 -0.7 14 Oeste 16 Oeste 0 -- -- 94
2019-11-16 01:00:00 0 9 Oeste 13 Oeste 0 -- -- 91
2019-11-16 00:00:00 0.2 8 Oeste 18 Oeste 0 -- -- 91
2019-11-15 23:00:00 1.2 16 Oeste 21 Oeste 0 -- -- 89
2019-11-15 22:00:00 1.8 14 Oeste 22 Oeste 0 -- -- 89
2019-11-15 21:00:00 2.9 18 Oeste 31 Oeste 0 -- -- 84
2019-11-15 20:00:00 3.3 23 Oeste 36 Oeste 0 -- -- 80
2019-11-15 19:00:00 3.7 26 Oeste 35 Oeste 0 -- -- 76
2019-11-15 18:00:00 4.3 21 Oeste 36 Oeste 0 -- -- 72
2019-11-15 17:00:00 5.8 23 Oeste 36 Oeste 0 -- -- 69
2019-11-15 16:00:00 7.4 27 Oeste 43 Oeste 0 -- -- 61
2019-11-15 15:00:00 7.2 30 Oeste 39 Oeste 0 -- -- 63
2019-11-15 14:00:00 7.5 22 Oeste 33 Oeste 0 -- -- 61
2019-11-15 13:00:00 6.7 23 Oeste 37 Oeste 0.4 -- -- 65
2019-11-15 12:00:00 5.9 26 Oeste 37 Sudoeste 0 -- -- 72
2019-11-15 11:00:00 4.6 26 Oeste 35 Oeste 0 -- -- 79
2019-11-15 10:00:00 2.5 25 Oeste 30 Oeste 0 -- -- 91
2019-11-15 09:00:00 0.6 19 Oeste 26 Oeste 0 -- -- 95
2019-11-15 08:00:00 0.8 21 Oeste 32 Oeste 0 -- -- 96
2019-11-15 07:00:00 1 24 Oeste 30 Oeste 0 -- -- 95
2019-11-15 06:00:00 0.9 23 Oeste 30 Oeste 0 -- -- 95
2019-11-15 05:00:00 1.1 24 Oeste 30 Oeste 0 -- -- 93
2019-11-15 04:00:00 1.4 24 Oeste 32 Oeste 0 -- -- 94
2019-11-15 03:00:00 1.7 25 Oeste 37 Oeste 0 -- -- 93
2019-11-15 02:00:00 2.2 28 Oeste 38 Oeste 0 -- -- 91
2019-11-15 01:00:00 2.1 29 Oeste 38 Oeste 0 -- -- 93
2019-11-15 00:00:00 2.5 27 Oeste 39 Oeste 0 -- -- 87